createdAt,value
2017-04-10T00:00:49.417Z,61.40
2017-04-10T00:01:47.989Z,61.10
2017-04-10T00:02:47.163Z,61.40
2017-04-10T00:03:45.571Z,61.40
2017-04-10T00:04:44.027Z,61.80
2017-04-10T00:05:43.425Z,61.70
2017-04-10T00:06:41.837Z,61.90
2017-04-10T00:07:41.040Z,63.30
2017-04-10T00:08:39.460Z,63.60
2017-04-10T00:09:37.901Z,63.40
2017-04-10T00:10:36.616Z,63.60
2017-04-10T00:11:35.077Z,63.10
2017-04-10T00:12:33.749Z,63.10
2017-04-10T00:13:32.195Z,62.90
2017-04-10T00:14:30.700Z,61.80
2017-04-10T00:15:29.096Z,61.50
2017-04-10T00:16:28.272Z,60.90
2017-04-10T00:17:28.268Z,62.20
2017-04-10T00:18:26.707Z,62.40
2017-04-10T00:19:25.127Z,62.60
2017-04-10T00:20:24.389Z,62.10
2017-04-10T00:21:22.825Z,62.40
2017-04-10T00:22:21.581Z,62.40
2017-04-10T00:23:20.014Z,62.70
2017-04-10T00:24:19.166Z,62.80
2017-04-10T00:25:18.570Z,62.90
2017-04-10T00:26:17.040Z,62.90
2017-04-10T00:27:15.457Z,62.80
2017-04-10T00:28:13.837Z,63.50
2017-04-10T00:29:12.287Z,63.40
2017-04-10T00:30:11.427Z,63.20
2017-04-10T00:31:10.557Z,63.60
2017-04-10T00:32:09.847Z,63.70
2017-04-10T00:33:09.032Z,63.40
2017-04-10T00:34:08.196Z,63.70
2017-04-10T00:35:06.600Z,63.60
2017-04-10T00:36:05.000Z,63.50
2017-04-10T00:37:03.413Z,64.20
2017-04-10T00:38:01.849Z,64.50
2017-04-10T00:39:02.696Z,64.70
2017-04-10T00:40:01.101Z,64.80
2017-04-10T00:41:00.295Z,65.20
2017-04-10T00:41:58.703Z,64.90
2017-04-10T00:42:57.452Z,65.10
2017-04-10T00:43:55.895Z,65.00
2017-04-10T00:44:55.041Z,65.00
2017-04-10T00:45:53.460Z,65.20
2017-04-10T00:46:52.618Z,65.40
2017-04-10T00:47:51.086Z,66.00
2017-04-10T00:48:49.510Z,65.50
2017-04-10T00:49:47.877Z,65.80
2017-04-10T00:50:46.298Z,65.80
2017-04-10T00:51:44.785Z,65.80
2017-04-10T00:52:43.982Z,65.80
2017-04-10T00:53:43.157Z,65.80
2017-04-10T00:54:42.319Z,65.80
2017-04-10T00:55:40.766Z,65.20
2017-04-10T00:56:39.144Z,65.00
2017-04-10T00:57:38.297Z,65.00
2017-04-10T00:58:37.372Z,65.20
2017-04-10T00:59:35.818Z,65.30
2017-04-10T01:00:34.366Z,65.50
2017-04-10T01:01:33.019Z,65.30
2017-04-10T01:02:31.606Z,65.50
2017-04-10T01:03:30.030Z,65.30
2017-04-10T01:04:28.402Z,64.70
2017-04-10T01:05:26.892Z,65.30
2017-04-10T01:06:25.290Z,65.50
2017-04-10T01:07:23.849Z,65.70
2017-04-10T01:08:22.231Z,65.70
2017-04-10T01:09:20.723Z,65.50
2017-04-10T01:10:19.886Z,65.10
2017-04-10T01:11:20.836Z,65.70
2017-04-10T01:12:19.260Z,65.70
2017-04-10T01:13:17.665Z,65.70
2017-04-10T01:14:16.134Z,65.80
2017-04-10T01:15:14.586Z,65.20
2017-04-10T01:16:13.011Z,65.40
2017-04-10T01:17:12.193Z,65.80
2017-04-10T01:18:11.347Z,65.10
2017-04-10T01:19:10.528Z,65.80
2017-04-10T01:20:09.359Z,65.70
2017-04-10T01:21:08.547Z,65.90
2017-04-10T01:22:07.368Z,65.90
2017-04-10T01:23:05.759Z,65.70
2017-04-10T01:24:04.190Z,65.30
2017-04-10T01:25:02.577Z,65.50
2017-04-10T01:26:01.121Z,65.50
2017-04-10T01:27:00.219Z,65.80
2017-04-10T01:27:58.626Z,66.10
2017-04-10T01:28:57.006Z,66.90
2017-04-10T01:29:56.151Z,67.50
2017-04-10T01:30:54.887Z,67.60
2017-04-10T01:31:54.017Z,68.40
2017-04-10T01:32:55.078Z,68.70
2017-04-10T01:33:53.492Z,68.10
2017-04-10T01:34:51.891Z,68.30
2017-04-10T01:35:50.284Z,68.30
2017-04-10T01:36:48.729Z,68.10
2017-04-10T01:37:47.143Z,68.20
2017-04-10T01:38:46.436Z,67.90
2017-04-10T01:39:45.567Z,67.80
2017-04-10T01:40:43.943Z,67.50
2017-04-10T01:41:42.368Z,67.50
2017-04-10T01:42:41.570Z,67.20
2017-04-10T01:43:40.256Z,67.40
2017-04-10T01:44:38.672Z,67.30
2017-04-10T01:45:37.050Z,67.40
2017-04-10T01:46:36.169Z,67.10
2017-04-10T01:47:34.566Z,66.50
2017-04-10T01:48:32.953Z,66.70
2017-04-10T01:50:30.487Z,67.00
2017-04-10T01:51:29.011Z,67.30
2017-04-10T01:52:28.152Z,67.30
2017-04-10T01:53:26.571Z,67.00
2017-04-10T01:54:25.696Z,67.20
2017-04-10T01:55:24.120Z,67.50
2017-04-10T01:56:23.657Z,67.30
2017-04-10T01:57:22.132Z,67.10
2017-04-10T01:58:20.539Z,67.60
2017-04-10T01:59:18.928Z,67.80
2017-04-10T02:00:18.075Z,68.00
2017-04-10T02:01:16.440Z,68.50
2017-04-10T02:02:14.954Z,68.80
2017-04-10T02:03:14.125Z,68.90
2017-04-10T02:04:12.529Z,69.10
2017-04-10T02:05:10.907Z,68.70
2017-04-10T02:06:09.303Z,68.60
2017-04-10T02:07:07.758Z,68.60
2017-04-10T02:08:06.220Z,68.60
2017-04-10T02:09:04.920Z,68.50
2017-04-10T02:10:03.348Z,67.90
2017-04-10T02:11:01.826Z,68.30
2017-04-10T02:12:00.297Z,68.30
2017-04-10T02:12:59.168Z,68.20
2017-04-10T02:13:57.558Z,69.20
2017-04-10T02:14:55.924Z,68.30
2017-04-10T02:15:54.492Z,68.20
2017-04-10T02:16:52.973Z,68.30
2017-04-10T02:17:52.105Z,68.30
2017-04-10T02:18:50.608Z,68.50
2017-04-10T02:19:49.027Z,68.50
2017-04-10T02:20:47.445Z,68.60
2017-04-10T02:21:45.868Z,68.30
2017-04-10T02:22:44.272Z,68.70
2017-04-10T02:23:43.433Z,68.70
2017-04-10T02:24:41.876Z,68.50
2017-04-10T02:25:40.337Z,68.30
2017-04-10T02:26:38.741Z,68.10
2017-04-10T02:27:37.180Z,67.80
2017-04-10T02:28:35.558Z,68.10
2017-04-10T02:29:33.996Z,68.10
2017-04-10T02:30:32.433Z,68.00
2017-04-10T02:31:30.862Z,67.60
2017-04-10T02:32:29.627Z,67.90
2017-04-10T02:33:28.020Z,67.90
2017-04-10T02:34:26.408Z,67.70
2017-04-10T02:35:24.800Z,67.40
2017-04-10T02:36:23.231Z,67.30
2017-04-10T02:37:22.462Z,66.90
2017-04-10T02:38:21.574Z,67.40
2017-04-10T02:39:19.969Z,67.50
2017-04-10T02:40:19.746Z,67.10
2017-04-10T02:41:18.142Z,67.40
2017-04-10T02:42:16.577Z,67.50
2017-04-10T02:43:15.368Z,67.40
2017-04-10T02:44:13.850Z,67.30
2017-04-10T02:45:12.238Z,67.10
2017-04-10T02:46:10.599Z,66.80
2017-04-10T02:47:08.984Z,67.40
2017-04-10T02:48:07.491Z,67.40
2017-04-10T02:49:05.886Z,67.60
2017-04-10T02:50:04.360Z,67.60
2017-04-10T02:51:02.744Z,67.50
2017-04-10T02:52:01.174Z,67.20
2017-04-10T02:52:59.855Z,67.40
2017-04-10T02:54:00.816Z,67.40
2017-04-10T02:54:59.220Z,67.20
2017-04-10T02:55:58.375Z,67.70
2017-04-10T02:56:56.868Z,67.40
2017-04-10T02:57:55.275Z,67.20
2017-04-10T02:58:53.638Z,67.30
2017-04-10T02:59:52.091Z,67.40
2017-04-10T03:00:51.311Z,67.80
2017-04-10T03:01:49.702Z,67.80
2017-04-10T03:02:48.561Z,67.80
2017-04-10T03:03:46.953Z,67.70
2017-04-10T03:04:45.357Z,67.50
2017-04-10T03:05:44.564Z,67.50
2017-04-10T03:06:45.413Z,67.40
2017-04-10T03:07:47.149Z,67.10
2017-04-10T03:08:45.545Z,67.40
2017-04-10T03:09:43.939Z,66.70
2017-04-10T03:10:42.316Z,66.60
2017-04-10T03:11:40.800Z,66.50
2017-04-10T03:12:40.080Z,66.90
2017-04-10T03:13:38.458Z,67.00
2017-04-10T03:14:37.628Z,66.90
2017-04-10T03:15:36.027Z,66.80
2017-04-10T03:16:35.169Z,66.40
2017-04-10T03:17:33.608Z,67.00
2017-04-10T03:18:32.009Z,67.20
2017-04-10T03:19:30.421Z,67.40
2017-04-10T03:20:29.591Z,67.40
2017-04-10T03:21:27.972Z,67.30
2017-04-10T03:22:27.117Z,67.30
2017-04-10T03:23:25.690Z,67.10
2017-04-10T03:24:24.081Z,66.80
2017-04-10T03:25:22.477Z,66.70
2017-04-10T03:26:20.880Z,67.00
2017-04-10T03:27:19.269Z,67.20
2017-04-10T03:28:17.721Z,67.30
2017-04-10T03:29:16.633Z,67.70
2017-04-10T03:30:15.067Z,67.30
2017-04-10T03:31:13.453Z,67.30
2017-04-10T03:32:11.873Z,67.40
2017-04-10T03:33:11.030Z,67.10
2017-04-10T03:34:09.401Z,67.20
2017-04-10T03:35:08.461Z,67.70
2017-04-10T03:36:06.917Z,67.50
2017-04-10T03:37:05.311Z,67.40
2017-04-10T03:38:03.696Z,67.20
2017-04-10T03:39:02.446Z,67.20
2017-04-10T03:40:00.848Z,67.30
2017-04-10T03:40:59.325Z,67.30
2017-04-10T03:41:57.775Z,67.40
2017-04-10T03:42:56.175Z,67.50
2017-04-10T03:43:55.684Z,67.20
2017-04-10T03:44:54.074Z,67.20
2017-04-10T03:45:52.555Z,66.90
2017-04-10T03:46:50.987Z,67.00
2017-04-10T03:47:49.365Z,67.00
2017-04-10T03:48:48.031Z,67.10
2017-04-10T03:49:46.424Z,67.40
2017-04-10T03:50:44.874Z,67.10
2017-04-10T03:51:43.263Z,68.00
2017-04-10T03:52:41.707Z,67.30
2017-04-10T03:53:40.844Z,67.20
2017-04-10T03:54:39.254Z,66.90
2017-04-10T03:55:38.698Z,66.80
2017-04-10T03:56:37.102Z,66.50
2017-04-10T03:57:36.111Z,66.60
2017-04-10T03:58:34.578Z,65.90
2017-04-10T03:59:33.750Z,66.60
2017-04-10T04:00:32.879Z,66.70
2017-04-10T04:01:31.293Z,67.10
2017-04-10T04:02:29.698Z,67.30
2017-04-10T04:03:28.443Z,67.30
2017-04-10T04:04:26.926Z,67.40
2017-04-10T04:05:26.065Z,67.40
2017-04-10T04:06:24.453Z,67.50
2017-04-10T04:07:22.871Z,67.50
2017-04-10T04:08:21.267Z,67.70
2017-04-10T04:09:20.628Z,67.50
2017-04-10T04:10:19.784Z,67.50
2017-04-10T04:11:18.179Z,67.40
2017-04-10T04:12:17.371Z,67.10
2017-04-10T04:13:16.090Z,66.90
2017-04-10T04:14:14.501Z,67.00
2017-04-10T04:15:12.934Z,66.70
2017-04-10T04:16:12.161Z,66.60
2017-04-10T04:17:10.911Z,66.80
2017-04-10T04:18:09.310Z,67.00
2017-04-10T04:19:08.056Z,67.30
2017-04-10T04:20:06.513Z,66.80
2017-04-10T04:21:04.921Z,67.00
2017-04-10T04:22:04.127Z,66.80
2017-04-10T04:23:02.569Z,66.70
2017-04-10T04:24:00.983Z,66.80
2017-04-10T04:24:59.403Z,67.10
2017-04-10T04:25:57.816Z,67.30
2017-04-10T04:26:57.238Z,67.30
2017-04-10T04:27:55.681Z,67.40
2017-04-10T04:28:54.465Z,67.70
2017-04-10T04:29:52.878Z,67.70
2017-04-10T04:30:51.266Z,67.90
2017-04-10T04:31:50.390Z,67.60
2017-04-10T04:32:48.807Z,67.70
2017-04-10T04:33:47.269Z,68.00
2017-04-10T04:34:45.694Z,67.90
2017-04-10T04:35:44.083Z,68.10
2017-04-10T04:36:42.471Z,68.10
2017-04-10T04:37:40.875Z,68.00
2017-04-10T04:38:40.015Z,68.00
2017-04-10T04:39:38.518Z,67.80
2017-04-10T04:40:36.902Z,67.80
2017-04-10T04:41:36.410Z,67.90
2017-04-10T04:42:37.821Z,67.60
2017-04-10T04:43:36.243Z,67.30
2017-04-10T04:44:34.652Z,67.40
2017-04-10T04:45:34.585Z,67.20
2017-04-10T04:46:32.966Z,67.10
2017-04-10T04:47:31.430Z,67.00
2017-04-10T04:48:29.836Z,66.80
2017-04-10T04:49:28.256Z,66.60
2017-04-10T04:50:27.381Z,66.50
2017-04-10T04:51:26.155Z,66.40
2017-04-10T04:52:24.692Z,66.30
2017-04-10T04:53:23.821Z,66.10
2017-04-10T04:54:22.210Z,66.00
2017-04-10T04:55:20.994Z,65.70
2017-04-10T04:56:19.457Z,65.30
2017-04-10T04:57:17.853Z,65.00
2017-04-10T04:58:16.991Z,64.60
2017-04-10T04:59:15.423Z,64.50
2017-04-10T05:00:15.009Z,64.20
2017-04-10T05:01:14.191Z,64.00
2017-04-10T05:02:12.573Z,64.00
2017-04-10T05:03:11.730Z,63.90
2017-04-10T05:04:10.204Z,63.80
2017-04-10T05:05:08.577Z,64.10
2017-04-10T05:06:08.891Z,63.70
2017-04-10T05:07:07.691Z,63.70
2017-04-10T05:08:06.869Z,63.60
2017-04-10T05:09:06.030Z,63.60
2017-04-10T05:10:05.391Z,63.70
2017-04-10T05:11:03.822Z,63.50
2017-04-10T05:12:03.042Z,63.50
2017-04-10T05:13:01.493Z,63.50
2017-04-10T05:14:00.670Z,63.40
2017-04-10T05:14:59.833Z,63.40
2017-04-10T05:15:58.263Z,63.50
2017-04-10T05:16:56.658Z,63.20
2017-04-10T05:17:55.051Z,63.10
2017-04-10T05:18:53.520Z,63.00
2017-04-10T05:19:52.335Z,62.70
2017-04-10T05:20:50.718Z,62.50
2017-04-10T05:21:49.149Z,62.20
2017-04-10T05:22:48.421Z,62.10
2017-04-10T05:23:47.224Z,60.80
2017-04-10T05:24:46.449Z,60.50
2017-04-10T05:25:44.866Z,60.00
2017-04-10T05:26:43.272Z,59.70
2017-04-10T05:27:42.037Z,59.70
2017-04-10T05:28:40.444Z,59.00
2017-04-10T05:29:39.558Z,59.50
2017-04-10T05:30:38.293Z,59.20
2017-04-10T05:31:36.684Z,59.10
2017-04-10T05:32:35.079Z,58.80
2017-04-10T05:33:33.553Z,58.80
2017-04-10T05:34:32.765Z,58.30
2017-04-10T05:35:31.140Z,59.00
2017-04-10T05:36:29.621Z,58.30
2017-04-10T05:37:29.315Z,58.10
2017-04-10T05:38:27.713Z,58.10
2017-04-10T05:39:26.091Z,58.00
2017-04-10T05:40:24.524Z,57.90
2017-04-10T05:41:22.878Z,57.90
2017-04-10T05:42:22.614Z,57.70
2017-04-10T05:43:21.022Z,57.70
2017-04-10T05:44:19.425Z,57.60
2017-04-10T05:45:17.785Z,57.30
2017-04-10T05:46:16.166Z,57.30
2017-04-10T05:47:14.574Z,57.00
2017-04-10T05:48:13.976Z,56.90
2017-04-10T05:49:12.339Z,56.80
2017-04-10T05:50:10.761Z,56.90
2017-04-10T05:51:09.175Z,56.70
2017-04-10T05:52:07.580Z,56.50
2017-04-10T05:53:05.957Z,56.30
2017-04-10T05:54:05.146Z,55.80
2017-04-10T05:55:03.618Z,56.10
2017-04-10T05:56:02.007Z,55.70
2017-04-10T05:57:00.504Z,55.90
2017-04-10T05:57:58.878Z,55.60
2017-04-10T05:58:57.273Z,55.60
2017-04-10T06:00:55.678Z,55.50
2017-04-10T06:01:54.065Z,55.00
2017-04-10T06:02:52.491Z,54.80
2017-04-10T06:03:51.625Z,54.80
2017-04-10T06:04:50.034Z,54.60
2017-04-10T06:05:48.436Z,54.70
2017-04-10T06:06:46.868Z,53.90
2017-04-10T06:07:45.325Z,53.90
2017-04-10T06:08:44.387Z,53.80
2017-04-10T06:09:42.750Z,53.90
2017-04-10T06:10:41.978Z,54.00
2017-04-10T06:11:40.421Z,53.70
2017-04-10T06:12:38.804Z,53.60
2017-04-10T06:13:38.123Z,53.60
2017-04-10T06:14:37.266Z,53.20
2017-04-10T06:15:36.664Z,53.20
2017-04-10T06:16:35.041Z,52.60
2017-04-10T06:17:34.360Z,52.70
2017-04-10T06:18:33.411Z,52.90
2017-04-10T06:19:31.793Z,52.50
2017-04-10T06:20:30.205Z,52.80
2017-04-10T06:21:28.601Z,52.80
2017-04-10T06:22:27.058Z,52.80
2017-04-10T06:23:25.502Z,52.70
2017-04-10T06:24:24.649Z,52.20
2017-04-10T06:25:23.004Z,52.30
2017-04-10T06:26:21.441Z,51.70
2017-04-10T06:27:19.863Z,51.90
2017-04-10T06:28:18.260Z,52.00
2017-04-10T06:29:17.423Z,52.00
2017-04-10T06:30:15.823Z,52.20
2017-04-10T06:31:14.957Z,52.00
2017-04-10T06:32:13.350Z,51.70
2017-04-10T06:33:11.735Z,52.00
2017-04-10T06:34:10.868Z,51.60
2017-04-10T06:35:09.310Z,51.50
2017-04-10T06:36:08.507Z,50.90
2017-04-10T06:37:06.881Z,50.80
2017-04-10T06:38:05.292Z,50.70
2017-04-10T06:39:04.601Z,50.20
2017-04-10T06:40:03.015Z,50.50
2017-04-10T06:41:01.501Z,50.50
2017-04-10T06:42:00.864Z,50.10
2017-04-10T06:42:59.261Z,49.40
2017-04-10T06:43:57.647Z,50.00
2017-04-10T06:44:56.056Z,49.90
2017-04-10T06:45:55.215Z,49.60
2017-04-10T06:46:53.664Z,49.80
2017-04-10T06:47:52.439Z,49.50
2017-04-10T06:48:51.576Z,49.80
2017-04-10T06:49:50.722Z,49.70
2017-04-10T06:50:49.469Z,49.50
2017-04-10T06:51:47.926Z,49.00
2017-04-10T06:52:46.365Z,49.30
2017-04-10T06:53:45.686Z,48.00
2017-04-10T06:54:44.103Z,48.40
2017-04-10T06:55:42.533Z,47.60
2017-04-10T06:56:40.929Z,48.00
2017-04-10T06:57:39.782Z,47.90
2017-04-10T06:58:38.234Z,47.40
2017-04-10T06:59:36.644Z,47.60
2017-04-10T07:00:35.551Z,47.70
2017-04-10T07:01:34.028Z,47.70
2017-04-10T07:02:33.135Z,47.30
2017-04-10T07:03:32.287Z,46.60
2017-04-10T07:04:30.724Z,47.10
2017-04-10T07:05:29.573Z,46.70
2017-04-10T07:06:28.708Z,46.20
2017-04-10T07:07:28.644Z,46.10
2017-04-10T07:08:27.049Z,46.00
2017-04-10T07:09:25.587Z,46.30
2017-04-10T07:10:23.974Z,45.40
2017-04-10T07:11:23.128Z,45.40
2017-04-10T07:12:21.536Z,45.00
2017-04-10T07:13:20.688Z,44.90
2017-04-10T07:14:19.726Z,44.70
2017-04-10T07:15:18.191Z,44.30
2017-04-10T07:16:16.546Z,43.80
2017-04-10T07:17:15.716Z,43.90
2017-04-10T07:18:15.242Z,43.30
2017-04-10T07:19:13.657Z,42.70
2017-04-10T07:20:12.053Z,42.40
2017-04-10T07:21:11.190Z,42.90
2017-04-10T07:22:09.634Z,42.10
2017-04-10T07:23:08.505Z,41.70
2017-04-10T07:24:07.616Z,41.70
2017-04-10T07:25:06.383Z,41.20
2017-04-10T07:26:04.777Z,41.40
2017-04-10T07:27:03.220Z,41.10
2017-04-10T07:28:01.623Z,41.10
2017-04-10T07:29:00.066Z,40.80
2017-04-10T07:29:58.510Z,40.60
2017-04-10T07:30:58.377Z,41.10
2017-04-10T07:31:56.827Z,40.50
2017-04-10T07:32:55.230Z,41.10
2017-04-10T07:33:53.606Z,41.60
2017-04-10T07:34:52.760Z,41.20
2017-04-10T07:35:51.204Z,41.00
2017-04-10T07:36:49.661Z,40.70
2017-04-10T07:37:48.042Z,40.60
2017-04-10T07:38:46.445Z,40.40
2017-04-10T07:39:44.841Z,39.40
2017-04-10T07:40:43.998Z,39.10
2017-04-10T07:41:42.470Z,38.80
2017-04-10T07:42:40.891Z,38.00
2017-04-10T07:43:39.275Z,37.90
2017-04-10T07:44:37.679Z,37.30
2017-04-10T07:45:37.128Z,37.00
2017-04-10T07:46:35.526Z,37.10
2017-04-10T07:47:33.934Z,37.30
2017-04-10T07:48:32.409Z,37.00
2017-04-10T07:49:31.563Z,37.20
2017-04-10T07:50:29.983Z,37.00
2017-04-10T07:51:28.619Z,37.00
2017-04-10T07:52:27.412Z,36.80
2017-04-10T07:53:25.807Z,35.90
2017-04-10T07:54:24.228Z,36.10
2017-04-10T07:55:22.610Z,35.90
2017-04-10T07:56:21.001Z,35.40
2017-04-10T07:57:21.853Z,35.50
2017-04-10T07:58:20.257Z,35.70
2017-04-10T07:59:18.729Z,35.30
2017-04-10T08:00:17.566Z,35.00
2017-04-10T08:01:16.147Z,35.00
2017-04-10T08:02:14.535Z,35.30
2017-04-10T08:03:13.023Z,35.20
2017-04-10T08:04:11.427Z,34.90
2017-04-10T08:05:10.575Z,34.90
2017-04-10T08:06:08.988Z,34.40
2017-04-10T08:07:08.134Z,34.10
2017-04-10T08:08:06.514Z,34.20
2017-04-10T08:09:05.326Z,34.10
2017-04-10T08:10:04.506Z,33.70
2017-04-10T08:11:03.660Z,32.50
2017-04-10T08:12:02.079Z,32.60
2017-04-10T08:13:00.473Z,32.40
2017-04-10T08:13:58.878Z,32.80
2017-04-10T08:14:57.376Z,33.20
2017-04-10T08:15:56.567Z,33.00
2017-04-10T08:16:55.703Z,31.20
2017-04-10T08:17:54.071Z,30.90
2017-04-10T08:18:53.148Z,31.00
2017-04-10T08:19:51.533Z,30.40
2017-04-10T08:20:50.643Z,29.60
2017-04-10T08:21:49.806Z,29.50
2017-04-10T08:22:48.221Z,29.50
2017-04-10T08:23:46.631Z,28.90
2017-04-10T08:24:45.058Z,29.00
2017-04-10T08:25:44.223Z,29.40
2017-04-10T08:26:42.738Z,29.30
2017-04-10T08:27:41.167Z,28.60
2017-04-10T08:28:40.362Z,28.80
2017-04-10T08:29:39.569Z,28.80
2017-04-10T08:30:37.997Z,29.20
2017-04-10T08:31:36.376Z,28.80
2017-04-10T08:32:34.891Z,28.80
2017-04-10T08:33:33.341Z,28.00
2017-04-10T08:34:33.209Z,28.10
2017-04-10T08:35:31.589Z,28.10
2017-04-10T08:36:29.974Z,28.00
2017-04-10T08:37:29.098Z,27.50
2017-04-10T08:38:27.501Z,27.20
2017-04-10T08:39:26.259Z,26.90
2017-04-10T08:40:24.998Z,27.40
2017-04-10T08:41:23.438Z,27.60
2017-04-10T08:42:22.189Z,27.10
2017-04-10T08:43:20.658Z,27.00
2017-04-10T08:44:19.117Z,27.00
2017-04-10T08:45:17.550Z,27.10
2017-04-10T08:46:16.695Z,26.90
2017-04-10T08:47:15.148Z,26.30
2017-04-10T08:48:13.559Z,26.30
2017-04-10T08:49:13.017Z,26.40
2017-04-10T08:50:12.201Z,26.30
2017-04-10T08:51:11.396Z,26.40
2017-04-10T08:52:09.808Z,26.20
2017-04-10T08:53:08.942Z,26.30
2017-04-10T08:54:07.389Z,26.00
2017-04-10T08:55:05.795Z,25.40
2017-04-10T08:56:04.619Z,25.50
2017-04-10T08:57:03.771Z,24.70
2017-04-10T08:58:02.271Z,24.40
2017-04-10T08:59:01.468Z,25.50
2017-04-10T08:59:59.873Z,25.60
2017-04-10T09:00:58.318Z,25.00
2017-04-10T09:01:56.791Z,25.00
2017-04-10T09:02:55.239Z,24.80
2017-04-10T09:03:54.391Z,24.80
2017-04-10T09:04:52.792Z,24.40
2017-04-10T09:05:51.894Z,24.10
2017-04-10T09:06:50.351Z,24.70
2017-04-10T09:07:48.771Z,23.80
2017-04-10T09:08:47.172Z,24.10
2017-04-10T09:09:45.586Z,23.90
2017-04-10T09:10:43.973Z,24.30
2017-04-10T09:11:42.376Z,24.90
2017-04-10T09:12:40.874Z,24.80
2017-04-10T09:13:40.057Z,24.50
2017-04-10T09:14:39.916Z,23.70
2017-04-10T09:15:38.312Z,23.70
2017-04-10T09:16:37.449Z,23.50
2017-04-10T09:17:35.879Z,24.00
2017-04-10T09:18:36.898Z,23.90
2017-04-10T09:19:36.034Z,24.20
2017-04-10T09:20:34.422Z,24.20
2017-04-10T09:21:33.623Z,24.50
2017-04-10T09:22:32.038Z,23.40
2017-04-10T09:23:30.452Z,23.30
2017-04-10T09:24:28.923Z,23.80
2017-04-10T09:25:27.320Z,24.20
2017-04-10T09:26:26.465Z,24.10
2017-04-10T09:27:24.851Z,24.40
2017-04-10T09:28:23.308Z,24.30
2017-04-10T09:29:21.744Z,24.00
2017-04-10T09:30:20.174Z,24.60
2017-04-10T09:31:18.600Z,23.80
2017-04-10T09:32:17.377Z,24.10
2017-04-10T09:33:16.601Z,24.10
2017-04-10T09:34:15.024Z,24.20
2017-04-10T09:35:13.451Z,24.40
2017-04-10T09:36:11.895Z,24.90
2017-04-10T09:37:10.740Z,25.20
2017-04-10T09:38:09.169Z,24.90
2017-04-10T09:39:07.635Z,24.40
2017-04-10T09:40:06.022Z,24.80
2017-04-10T09:41:05.217Z,25.00
2017-04-10T09:42:04.366Z,24.70
2017-04-10T09:43:02.772Z,24.10
2017-04-10T09:44:01.904Z,23.90
2017-04-10T09:45:00.416Z,23.90
2017-04-10T09:45:59.616Z,23.80
2017-04-10T09:46:58.785Z,23.40
2017-04-10T09:47:57.231Z,23.40
2017-04-10T09:48:55.964Z,23.50
2017-04-10T09:49:55.171Z,23.70
2017-04-10T09:50:53.633Z,23.90
2017-04-10T09:51:52.010Z,23.60
2017-04-10T09:52:50.399Z,23.40
2017-04-10T09:53:49.989Z,23.40
2017-04-10T09:54:48.378Z,23.40
2017-04-10T09:55:46.823Z,23.40
2017-04-10T09:56:45.327Z,23.60
2017-04-10T09:57:43.701Z,23.20
2017-04-10T09:58:42.133Z,23.00
2017-04-10T09:59:40.532Z,22.90
2017-04-10T10:00:39.056Z,22.80
2017-04-10T10:01:37.929Z,23.30
2017-04-10T10:02:36.397Z,22.00
2017-04-10T10:03:35.650Z,22.10
2017-04-10T10:04:34.195Z,22.10
2017-04-10T10:05:32.595Z,22.20
2017-04-10T10:06:31.010Z,22.30
2017-04-10T10:07:29.417Z,22.40
2017-04-10T10:08:28.392Z,22.40
2017-04-10T10:09:27.774Z,22.70
2017-04-10T10:10:26.216Z,22.50
2017-04-10T10:11:24.667Z,22.70
2017-04-10T10:12:23.123Z,23.20
2017-04-10T10:13:21.571Z,23.90
2017-04-10T10:14:19.973Z,23.30
2017-04-10T10:15:19.155Z,23.10
2017-04-10T10:16:18.358Z,22.30
2017-04-10T10:17:16.771Z,22.90
2017-04-10T10:18:15.197Z,23.20
2017-04-10T10:19:14.329Z,23.10
2017-04-10T10:20:12.992Z,22.90
2017-04-10T10:21:11.400Z,22.30
2017-04-10T10:22:09.810Z,22.40
2017-04-10T10:23:08.210Z,22.50
2017-04-10T10:24:06.639Z,22.90
2017-04-10T10:25:05.070Z,23.00
2017-04-10T10:26:03.497Z,22.50
2017-04-10T10:27:01.923Z,22.60
2017-04-10T10:28:00.402Z,22.10
2017-04-10T10:28:59.549Z,22.20
2017-04-10T10:29:59.685Z,22.50
2017-04-10T10:30:58.076Z,22.60
2017-04-10T10:31:57.211Z,22.80
2017-04-10T10:32:55.594Z,22.90
2017-04-10T10:33:54.007Z,22.60
2017-04-10T10:34:53.252Z,22.00
2017-04-10T10:35:51.652Z,21.80
2017-04-10T10:36:50.825Z,22.40
2017-04-10T10:37:49.294Z,22.50
2017-04-10T10:38:47.674Z,22.70
2017-04-10T10:39:46.888Z,22.80
2017-04-10T10:40:45.327Z,23.00
2017-04-10T10:41:43.762Z,22.80
2017-04-10T10:42:42.193Z,22.20
2017-04-10T10:43:41.422Z,22.20
2017-04-10T10:44:39.828Z,22.10
2017-04-10T10:45:38.309Z,22.00
2017-04-10T10:46:37.427Z,22.20
2017-04-10T10:47:35.841Z,22.60
2017-04-10T10:48:34.235Z,22.80
2017-04-10T10:49:33.396Z,23.10
2017-04-10T10:50:31.824Z,23.10
2017-04-10T10:51:30.241Z,23.10
2017-04-10T10:52:28.623Z,22.30
2017-04-10T10:53:27.002Z,22.50
2017-04-10T10:54:26.149Z,22.40
2017-04-10T10:55:24.613Z,22.30
2017-04-10T10:56:23.045Z,21.60
2017-04-10T10:57:21.471Z,22.50
2017-04-10T10:58:19.904Z,22.10
2017-04-10T10:59:18.369Z,22.20
2017-04-10T11:00:16.951Z,21.70
2017-04-10T11:01:15.467Z,21.50
2017-04-10T11:02:14.168Z,21.00
2017-04-10T11:03:12.549Z,21.00
2017-04-10T11:04:10.966Z,20.90
2017-04-10T11:05:09.405Z,21.70
2017-04-10T11:06:07.828Z,21.80
2017-04-10T11:07:09.582Z,21.70
2017-04-10T11:08:08.725Z,21.80
2017-04-10T11:09:07.142Z,21.70
2017-04-10T11:17:34.474Z,21.40
2017-04-10T11:18:33.613Z,23.40
2017-04-10T11:19:33.652Z,23.60
2017-04-10T11:20:32.065Z,23.40
2017-04-10T11:21:30.463Z,23.90
2017-04-10T11:22:29.591Z,23.60
2017-04-10T11:23:28.050Z,24.10
2017-04-10T11:24:27.184Z,23.80
2017-04-10T11:25:25.588Z,24.50
2017-04-10T11:26:23.947Z,23.90
2017-04-10T11:27:23.163Z,24.20
2017-04-10T11:28:21.573Z,24.30
2017-04-10T11:29:21.968Z,23.60
2017-04-10T11:30:20.452Z,24.00
2017-04-10T11:31:19.193Z,24.20
2017-04-10T11:32:17.674Z,24.30
2017-04-10T11:33:16.069Z,24.50
2017-04-10T11:34:14.467Z,24.10
2017-04-10T11:35:14.484Z,24.00
2017-04-10T11:36:13.641Z,24.10
2017-04-10T11:37:12.056Z,23.90
2017-04-10T11:38:10.485Z,23.30
2017-04-10T11:39:08.932Z,23.80
2017-04-10T11:40:07.611Z,24.30
2017-04-10T11:41:06.105Z,24.80
2017-04-10T11:42:04.509Z,25.10
2017-04-10T11:43:02.949Z,25.30
2017-04-10T11:45:00.643Z,25.40
2017-04-10T11:45:59.397Z,25.50
2017-04-10T11:46:58.646Z,25.20
2017-04-10T11:47:57.025Z,24.40
2017-04-10T11:48:55.409Z,25.00
2017-04-10T11:49:53.811Z,25.40
2017-04-10T11:50:52.223Z,24.70
2017-04-10T11:51:50.710Z,25.00
2017-04-10T11:52:49.161Z,25.10
2017-04-10T11:53:47.558Z,24.80
2017-04-10T11:54:45.949Z,24.90
2017-04-10T11:55:44.647Z,25.20
2017-04-10T11:56:43.056Z,25.60
2017-04-10T11:57:41.479Z,25.20
2017-04-10T11:58:39.961Z,25.30
2017-04-10T11:59:39.356Z,25.70
2017-04-10T12:00:37.845Z,25.50
2017-04-10T12:01:36.249Z,26.10
2017-04-10T12:02:35.378Z,25.70
2017-04-10T12:03:33.766Z,25.90
2017-04-10T12:04:32.120Z,26.30
2017-04-10T12:05:30.937Z,26.40
2017-04-10T12:06:29.328Z,26.20
2017-04-10T12:08:27.335Z,26.40
2017-04-10T12:09:25.759Z,25.90
2017-04-10T12:10:24.911Z,26.40
2017-04-10T12:11:23.377Z,25.90
2017-04-10T12:12:21.852Z,25.60
2017-04-10T12:13:20.234Z,25.80
2017-04-10T12:14:18.635Z,26.20
2017-04-10T12:15:17.763Z,26.10
2017-04-10T12:16:17.154Z,25.70
2017-04-10T12:17:15.551Z,26.10
2017-04-10T12:18:13.990Z,26.50
2017-04-10T12:19:12.393Z,26.70
2017-04-10T12:20:10.858Z,26.80
2017-04-10T12:21:09.283Z,26.20
2017-04-10T12:22:07.702Z,26.30
2017-04-10T12:23:06.094Z,25.60
2017-04-10T12:24:06.264Z,26.00
2017-04-10T12:25:04.713Z,26.50
2017-04-10T12:26:03.577Z,26.50
2017-04-10T12:27:02.026Z,26.50
2017-04-10T12:28:01.613Z,26.90
2017-04-10T12:29:01.121Z,25.90
2017-04-10T12:29:59.832Z,25.60
2017-04-10T12:30:58.221Z,26.30
2017-04-10T12:31:57.416Z,26.30
2017-04-10T12:32:55.839Z,26.20
2017-04-10T12:33:54.236Z,26.70
2017-04-10T12:34:52.672Z,26.80
2017-04-10T12:35:51.115Z,27.50
2017-04-10T12:36:50.350Z,27.30
2017-04-10T12:37:48.802Z,26.80
2017-04-10T12:38:47.202Z,26.50
2017-04-10T12:39:45.643Z,26.80
2017-04-10T12:40:44.055Z,26.90
2017-04-10T12:41:42.465Z,26.90
2017-04-10T12:42:41.609Z,26.90
2017-04-10T12:43:40.116Z,27.90
2017-04-10T12:44:39.235Z,27.00
2017-04-10T12:45:37.994Z,27.00
2017-04-10T12:46:36.454Z,27.80
2017-04-10T12:47:35.618Z,27.70